sensor_id;sensor_type;location;lat;lon;timestamp;P1;durP1;ratioP1;P2;durP2;ratioP2
15818;SDS011;8010;53.986;12.106;2024-03-07T00:02:10;10.37;;;6.33;;
15818;SDS011;8010;53.986;12.106;2024-03-07T00:04:36;9.90;;;5.97;;
15818;SDS011;8010;53.986;12.106;2024-03-07T00:07:02;10.13;;;5.83;;
15818;SDS011;8010;53.986;12.106;2024-03-07T00:09:32;7.97;;;5.70;;
15818;SDS011;8010;53.986;12.106;2024-03-07T00:11:59;9.60;;;5.60;;
15818;SDS011;8010;53.986;12.106;2024-03-07T00:14:25;11.30;;;6.73;;
15818;SDS011;8010;53.986;12.106;2024-03-07T00:16:55;12.73;;;7.07;;
15818;SDS011;8010;53.986;12.106;2024-03-07T00:19:21;14.13;;;6.47;;
15818;SDS011;8010;53.986;12.106;2024-03-07T00:21:50;11.47;;;6.27;;
15818;SDS011;8010;53.986;12.106;2024-03-07T00:24:16;13.13;;;7.07;;
15818;SDS011;8010;53.986;12.106;2024-03-07T00:26:42;13.40;;;6.40;;
15818;SDS011;8010;53.986;12.106;2024-03-07T00:29:08;11.50;;;6.57;;
15818;SDS011;8010;53.986;12.106;2024-03-07T00:31:33;11.07;;;6.13;;
15818;SDS011;8010;53.986;12.106;2024-03-07T00:33:59;9.90;;;6.47;;
15818;SDS011;8010;53.986;12.106;2024-03-07T00:36:25;14.40;;;7.10;;
15818;SDS011;8010;53.986;12.106;2024-03-07T00:38:50;9.57;;;6.10;;
15818;SDS011;8010;53.986;12.106;2024-03-07T00:41:19;12.10;;;6.53;;
15818;SDS011;8010;53.986;12.106;2024-03-07T00:43:45;12.90;;;6.43;;
15818;SDS011;8010;53.986;12.106;2024-03-07T00:46:11;10.90;;;6.17;;
15818;SDS011;8010;53.986;12.106;2024-03-07T00:48:37;12.57;;;6.30;;
15818;SDS011;8010;53.986;12.106;2024-03-07T00:51:03;13.27;;;7.13;;
15818;SDS011;8010;53.986;12.106;2024-03-07T00:53:29;10.53;;;6.33;;
15818;SDS011;8010;53.986;12.106;2024-03-07T00:55:55;9.23;;;6.00;;
15818;SDS011;8010;53.986;12.106;2024-03-07T00:58:20;9.63;;;6.37;;
15818;SDS011;8010;53.986;12.106;2024-03-07T01:00:46;11.23;;;5.97;;
15818;SDS011;8010;53.986;12.106;2024-03-07T01:03:12;11.77;;;7.03;;
15818;SDS011;8010;53.986;12.106;2024-03-07T01:05:39;12.50;;;5.93;;
15818;SDS011;8010;53.986;12.106;2024-03-07T01:08:05;12.70;;;6.60;;
15818;SDS011;8010;53.986;12.106;2024-03-07T01:10:31;15.30;;;7.23;;
15818;SDS011;8010;53.986;12.106;2024-03-07T01:12:56;12.50;;;6.67;;
15818;SDS011;8010;53.986;12.106;2024-03-07T01:15:26;14.10;;;6.23;;
15818;SDS011;8010;53.986;12.106;2024-03-07T01:17:52;11.60;;;6.17;;
15818;SDS011;8010;53.986;12.106;2024-03-07T01:20:17;12.77;;;6.57;;
15818;SDS011;8010;53.986;12.106;2024-03-07T01:22:43;11.33;;;6.87;;
15818;SDS011;8010;53.986;12.106;2024-03-07T01:25:09;9.97;;;6.47;;
15818;SDS011;8010;53.986;12.106;2024-03-07T01:27:34;12.50;;;6.40;;
15818;SDS011;8010;53.986;12.106;2024-03-07T01:30:00;11.47;;;6.47;;
15818;SDS011;8010;53.986;12.106;2024-03-07T01:32:26;13.93;;;7.23;;
15818;SDS011;8010;53.986;12.106;2024-03-07T01:34:54;15.33;;;6.97;;
15818;SDS011;8010;53.986;12.106;2024-03-07T01:37:19;9.80;;;6.53;;
15818;SDS011;8010;53.986;12.106;2024-03-07T01:39:45;13.70;;;6.33;;
15818;SDS011;8010;53.986;12.106;2024-03-07T01:42:11;16.40;;;6.90;;
15818;SDS011;8010;53.986;12.106;2024-03-07T01:44:37;12.37;;;7.07;;
15818;SDS011;8010;53.986;12.106;2024-03-07T01:47:05;15.60;;;7.27;;
15818;SDS011;8010;53.986;12.106;2024-03-07T01:49:31;9.70;;;6.37;;
15818;SDS011;8010;53.986;12.106;2024-03-07T01:51:57;10.07;;;6.33;;
15818;SDS011;8010;53.986;12.106;2024-03-07T01:54:23;11.37;;;6.97;;
15818;SDS011;8010;53.986;12.106;2024-03-07T01:56:50;11.47;;;7.37;;
15818;SDS011;8010;53.986;12.106;2024-03-07T01:59:16;11.13;;;7.20;;
15818;SDS011;8010;53.986;12.106;2024-03-07T02:01:45;11.27;;;6.80;;
15818;SDS011;8010;53.986;12.106;2024-03-07T02:04:11;10.90;;;6.93;;
15818;SDS011;8010;53.986;12.106;2024-03-07T02:06:37;14.57;;;7.07;;
15818;SDS011;8010;53.986;12.106;2024-03-07T02:09:03;10.10;;;5.97;;
15818;SDS011;8010;53.986;12.106;2024-03-07T02:11:30;11.60;;;6.83;;
15818;SDS011;8010;53.986;12.106;2024-03-07T02:13:56;11.63;;;7.23;;
15818;SDS011;8010;53.986;12.106;2024-03-07T02:16:21;10.77;;;6.30;;
15818;SDS011;8010;53.986;12.106;2024-03-07T02:18:47;11.77;;;7.17;;
15818;SDS011;8010;53.986;12.106;2024-03-07T02:21:13;11.53;;;7.00;;
15818;SDS011;8010;53.986;12.106;2024-03-07T02:23:39;11.37;;;6.47;;
15818;SDS011;8010;53.986;12.106;2024-03-07T02:26:06;12.13;;;6.70;;
15818;SDS011;8010;53.986;12.106;2024-03-07T02:28:33;11.20;;;7.07;;
15818;SDS011;8010;53.986;12.106;2024-03-07T02:30:59;14.40;;;7.10;;
15818;SDS011;8010;53.986;12.106;2024-03-07T02:33:25;10.93;;;7.07;;
15818;SDS011;8010;53.986;12.106;2024-03-07T02:35:51;11.27;;;6.90;;
15818;SDS011;8010;53.986;12.106;2024-03-07T02:38:17;12.67;;;7.90;;
15818;SDS011;8010;53.986;12.106;2024-03-07T02:40:43;14.10;;;8.70;;
15818;SDS011;8010;53.986;12.106;2024-03-07T02:43:08;11.63;;;7.47;;
15818;SDS011;8010;53.986;12.106;2024-03-07T02:45:34;10.97;;;7.93;;
15818;SDS011;8010;53.986;12.106;2024-03-07T02:47:59;17.83;;;8.00;;
15818;SDS011;8010;53.986;12.106;2024-03-07T02:50:25;12.23;;;7.47;;
15818;SDS011;8010;53.986;12.106;2024-03-07T02:52:51;12.23;;;7.50;;
15818;SDS011;8010;53.986;12.106;2024-03-07T02:55:17;10.63;;;7.50;;
15818;SDS011;8010;53.986;12.106;2024-03-07T02:57:43;11.77;;;8.03;;
15818;SDS011;8010;53.986;12.106;2024-03-07T03:00:10;13.17;;;8.20;;
15818;SDS011;8010;53.986;12.106;2024-03-07T03:02:48;15.67;;;7.63;;
15818;SDS011;8010;53.986;12.106;2024-03-07T03:05:14;11.60;;;7.30;;
15818;SDS011;8010;53.986;12.106;2024-03-07T03:07:41;12.83;;;7.60;;
15818;SDS011;8010;53.986;12.106;2024-03-07T03:10:07;10.17;;;7.20;;
15818;SDS011;8010;53.986;12.106;2024-03-07T03:12:34;11.97;;;7.33;;
15818;SDS011;8010;53.986;12.106;2024-03-07T03:15:02;15.77;;;8.03;;
15818;SDS011;8010;53.986;12.106;2024-03-07T03:17:30;11.87;;;7.40;;
15818;SDS011;8010;53.986;12.106;2024-03-07T03:19:57;14.50;;;7.23;;
15818;SDS011;8010;53.986;12.106;2024-03-07T03:22:22;11.63;;;7.23;;
15818;SDS011;8010;53.986;12.106;2024-03-07T03:24:48;15.60;;;7.77;;
15818;SDS011;8010;53.986;12.106;2024-03-07T03:27:13;16.47;;;7.67;;
15818;SDS011;8010;53.986;12.106;2024-03-07T03:29:39;12.97;;;7.03;;
15818;SDS011;8010;53.986;12.106;2024-03-07T03:32:05;11.70;;;7.60;;
15818;SDS011;8010;53.986;12.106;2024-03-07T03:34:32;15.00;;;7.67;;
15818;SDS011;8010;53.986;12.106;2024-03-07T03:36:58;11.33;;;7.13;;
15818;SDS011;8010;53.986;12.106;2024-03-07T03:39:24;15.03;;;8.03;;
15818;SDS011;8010;53.986;12.106;2024-03-07T03:41:51;15.17;;;7.97;;
15818;SDS011;8010;53.986;12.106;2024-03-07T03:44:17;14.40;;;7.63;;
15818;SDS011;8010;53.986;12.106;2024-03-07T03:46:43;12.87;;;8.10;;
15818;SDS011;8010;53.986;12.106;2024-03-07T03:49:09;14.63;;;7.80;;
15818;SDS011;8010;53.986;12.106;2024-03-07T03:51:35;14.80;;;7.87;;
15818;SDS011;8010;53.986;12.106;2024-03-07T03:54:01;14.40;;;8.13;;
15818;SDS011;8010;53.986;12.106;2024-03-07T03:56:26;14.07;;;7.90;;
15818;SDS011;8010;53.986;12.106;2024-03-07T03:58:52;14.90;;;7.87;;
15818;SDS011;8010;53.986;12.106;2024-03-07T04:01:18;12.80;;;7.67;;
15818;SDS011;8010;53.986;12.106;2024-03-07T04:03:43;12.90;;;8.87;;
15818;SDS011;8010;53.986;12.106;2024-03-07T04:06:11;16.10;;;8.33;;
15818;SDS011;8010;53.986;12.106;2024-03-07T04:08:37;13.93;;;7.57;;
15818;SDS011;8010;53.986;12.106;2024-03-07T04:11:03;13.30;;;7.53;;
15818;SDS011;8010;53.986;12.106;2024-03-07T04:13:29;16.37;;;8.33;;
15818;SDS011;8010;53.986;12.106;2024-03-07T04:15:55;14.10;;;8.00;;
15818;SDS011;8010;53.986;12.106;2024-03-07T04:18:21;12.53;;;7.90;;
15818;SDS011;8010;53.986;12.106;2024-03-07T04:20:48;16.43;;;8.60;;
15818;SDS011;8010;53.986;12.106;2024-03-07T04:23:14;17.20;;;8.73;;
15818;SDS011;8010;53.986;12.106;2024-03-07T04:25:40;14.30;;;7.73;;
15818;SDS011;8010;53.986;12.106;2024-03-07T04:28:06;12.53;;;8.20;;
15818;SDS011;8010;53.986;12.106;2024-03-07T04:30:31;13.47;;;8.63;;
15818;SDS011;8010;53.986;12.106;2024-03-07T04:32:57;18.40;;;9.60;;
15818;SDS011;8010;53.986;12.106;2024-03-07T04:35:23;18.77;;;9.10;;
15818;SDS011;8010;53.986;12.106;2024-03-07T04:37:49;23.60;;;8.87;;
15818;SDS011;8010;53.986;12.106;2024-03-07T04:40:15;14.27;;;8.63;;
15818;SDS011;8010;53.986;12.106;2024-03-07T04:42:44;12.50;;;8.30;;
15818;SDS011;8010;53.986;12.106;2024-03-07T04:45:12;16.60;;;8.57;;
15818;SDS011;8010;53.986;12.106;2024-03-07T04:47:41;17.53;;;8.93;;
15818;SDS011;8010;53.986;12.106;2024-03-07T04:50:08;14.67;;;8.40;;
15818;SDS011;8010;53.986;12.106;2024-03-07T04:52:36;15.37;;;8.87;;
15818;SDS011;8010;53.986;12.106;2024-03-07T04:55:08;15.17;;;8.80;;
15818;SDS011;8010;53.986;12.106;2024-03-07T04:57:37;15.70;;;8.57;;
15818;SDS011;8010;53.986;12.106;2024-03-07T05:00:06;19.23;;;9.57;;
15818;SDS011;8010;53.986;12.106;2024-03-07T05:02:33;16.97;;;8.50;;
15818;SDS011;8010;53.986;12.106;2024-03-07T05:04:58;17.13;;;8.67;;
15818;SDS011;8010;53.986;12.106;2024-03-07T05:07:24;14.50;;;9.03;;
15818;SDS011;8010;53.986;12.106;2024-03-07T05:09:49;17.43;;;9.63;;
15818;SDS011;8010;53.986;12.106;2024-03-07T05:12:15;16.03;;;9.20;;
15818;SDS011;8010;53.986;12.106;2024-03-07T05:14:40;18.33;;;9.30;;
15818;SDS011;8010;53.986;12.106;2024-03-07T05:17:06;14.20;;;8.50;;
15818;SDS011;8010;53.986;12.106;2024-03-07T05:19:33;16.33;;;8.07;;
15818;SDS011;8010;53.986;12.106;2024-03-07T05:21:59;26.13;;;9.73;;
15818;SDS011;8010;53.986;12.106;2024-03-07T05:24:25;17.07;;;9.10;;
15818;SDS011;8010;53.986;12.106;2024-03-07T05:26:51;17.23;;;10.47;;
15818;SDS011;8010;53.986;12.106;2024-03-07T05:29:18;19.60;;;10.43;;
15818;SDS011;8010;53.986;12.106;2024-03-07T05:31:44;18.53;;;10.67;;
15818;SDS011;8010;53.986;12.106;2024-03-07T05:34:14;18.30;;;9.90;;
15818;SDS011;8010;53.986;12.106;2024-03-07T05:36:40;16.93;;;9.73;;
15818;SDS011;8010;53.986;12.106;2024-03-07T05:39:10;16.63;;;9.90;;
15818;SDS011;8010;53.986;12.106;2024-03-07T05:41:37;19.23;;;11.83;;
15818;SDS011;8010;53.986;12.106;2024-03-07T05:44:03;19.40;;;11.47;;
15818;SDS011;8010;53.986;12.106;2024-03-07T05:46:29;21.00;;;11.20;;
15818;SDS011;8010;53.986;12.106;2024-03-07T05:48:55;21.00;;;10.47;;
15818;SDS011;8010;53.986;12.106;2024-03-07T05:51:22;18.07;;;10.17;;
15818;SDS011;8010;53.986;12.106;2024-03-07T05:53:48;17.10;;;10.03;;
15818;SDS011;8010;53.986;12.106;2024-03-07T05:56:14;21.90;;;11.17;;
15818;SDS011;8010;53.986;12.106;2024-03-07T05:58:39;19.30;;;10.43;;
15818;SDS011;8010;53.986;12.106;2024-03-07T06:01:05;22.90;;;11.53;;
15818;SDS011;8010;53.986;12.106;2024-03-07T06:03:33;16.80;;;9.90;;
15818;SDS011;8010;53.986;12.106;2024-03-07T06:05:59;18.13;;;10.70;;
15818;SDS011;8010;53.986;12.106;2024-03-07T06:08:24;18.53;;;9.80;;
15818;SDS011;8010;53.986;12.106;2024-03-07T06:10:50;19.23;;;10.10;;
15818;SDS011;8010;53.986;12.106;2024-03-07T06:13:16;19.00;;;11.07;;
15818;SDS011;8010;53.986;12.106;2024-03-07T06:15:45;19.47;;;10.30;;
15818;SDS011;8010;53.986;12.106;2024-03-07T06:18:11;18.57;;;10.10;;
15818;SDS011;8010;53.986;12.106;2024-03-07T06:20:38;19.90;;;11.27;;
15818;SDS011;8010;53.986;12.106;2024-03-07T06:23:05;18.83;;;10.33;;
15818;SDS011;8010;53.986;12.106;2024-03-07T06:25:31;22.20;;;11.77;;
15818;SDS011;8010;53.986;12.106;2024-03-07T06:28:15;25.03;;;10.90;;
15818;SDS011;8010;53.986;12.106;2024-03-07T06:30:42;20.53;;;10.93;;
15818;SDS011;8010;53.986;12.106;2024-03-07T06:33:09;19.13;;;11.00;;
15818;SDS011;8010;53.986;12.106;2024-03-07T06:35:36;19.63;;;10.93;;
15818;SDS011;8010;53.986;12.106;2024-03-07T06:38:05;23.87;;;12.03;;
15818;SDS011;8010;53.986;12.106;2024-03-07T06:40:31;18.77;;;9.73;;
15818;SDS011;8010;53.986;12.106;2024-03-07T06:42:58;20.40;;;11.40;;
15818;SDS011;8010;53.986;12.106;2024-03-07T06:45:24;20.90;;;11.80;;
15818;SDS011;8010;53.986;12.106;2024-03-07T06:47:49;23.13;;;10.37;;
15818;SDS011;8010;53.986;12.106;2024-03-07T06:50:17;17.23;;;11.00;;
15818;SDS011;8010;53.986;12.106;2024-03-07T06:52:45;17.33;;;9.70;;
15818;SDS011;8010;53.986;12.106;2024-03-07T06:55:12;20.57;;;12.00;;
15818;SDS011;8010;53.986;12.106;2024-03-07T06:57:42;22.43;;;10.90;;
15818;SDS011;8010;53.986;12.106;2024-03-07T07:00:08;18.73;;;11.50;;
15818;SDS011;8010;53.986;12.106;2024-03-07T07:02:39;18.17;;;10.73;;
15818;SDS011;8010;53.986;12.106;2024-03-07T07:05:06;20.90;;;11.30;;
15818;SDS011;8010;53.986;12.106;2024-03-07T07:07:36;19.77;;;10.77;;
15818;SDS011;8010;53.986;12.106;2024-03-07T07:10:03;21.00;;;10.43;;
15818;SDS011;8010;53.986;12.106;2024-03-07T07:12:29;18.93;;;10.53;;
15818;SDS011;8010;53.986;12.106;2024-03-07T07:14:55;17.93;;;10.87;;
15818;SDS011;8010;53.986;12.106;2024-03-07T07:17:20;19.93;;;10.67;;
15818;SDS011;8010;53.986;12.106;2024-03-07T07:19:46;21.83;;;10.73;;
15818;SDS011;8010;53.986;12.106;2024-03-07T07:22:11;17.27;;;10.23;;
15818;SDS011;8010;53.986;12.106;2024-03-07T07:24:37;24.77;;;10.93;;
15818;SDS011;8010;53.986;12.106;2024-03-07T07:27:03;16.40;;;10.73;;
15818;SDS011;8010;53.986;12.106;2024-03-07T07:29:29;20.90;;;10.87;;
15818;SDS011;8010;53.986;12.106;2024-03-07T07:31:54;18.50;;;10.63;;
15818;SDS011;8010;53.986;12.106;2024-03-07T07:34:21;20.87;;;11.07;;
15818;SDS011;8010;53.986;12.106;2024-03-07T07:36:46;18.47;;;10.70;;
15818;SDS011;8010;53.986;12.106;2024-03-07T07:39:12;20.87;;;10.90;;
15818;SDS011;8010;53.986;12.106;2024-03-07T07:41:42;19.33;;;11.17;;
15818;SDS011;8010;53.986;12.106;2024-03-07T07:44:07;23.43;;;11.50;;
15818;SDS011;8010;53.986;12.106;2024-03-07T07:46:34;20.27;;;10.37;;
15818;SDS011;8010;53.986;12.106;2024-03-07T07:49:00;18.93;;;10.00;;
15818;SDS011;8010;53.986;12.106;2024-03-07T07:51:27;23.63;;;10.73;;
15818;SDS011;8010;53.986;12.106;2024-03-07T07:53:53;18.67;;;10.20;;
15818;SDS011;8010;53.986;12.106;2024-03-07T07:56:21;21.90;;;10.60;;
15818;SDS011;8010;53.986;12.106;2024-03-07T07:58:47;19.63;;;11.70;;
15818;SDS011;8010;53.986;12.106;2024-03-07T08:01:14;20.47;;;11.30;;
15818;SDS011;8010;53.986;12.106;2024-03-07T08:03:41;17.07;;;10.77;;
15818;SDS011;8010;53.986;12.106;2024-03-07T08:06:09;17.30;;;10.00;;
15818;SDS011;8010;53.986;12.106;2024-03-07T08:08:34;23.10;;;11.40;;
15818;SDS011;8010;53.986;12.106;2024-03-07T08:11:00;21.60;;;10.37;;
15818;SDS011;8010;53.986;12.106;2024-03-07T08:13:26;19.17;;;10.33;;
15818;SDS011;8010;53.986;12.106;2024-03-07T08:15:52;16.20;;;9.90;;
15818;SDS011;8010;53.986;12.106;2024-03-07T08:18:18;15.20;;;9.93;;
15818;SDS011;8010;53.986;12.106;2024-03-07T08:20:45;20.07;;;10.40;;
15818;SDS011;8010;53.986;12.106;2024-03-07T08:23:11;17.33;;;10.50;;
15818;SDS011;8010;53.986;12.106;2024-03-07T08:25:38;18.57;;;10.47;;
15818;SDS011;8010;53.986;12.106;2024-03-07T08:28:06;21.30;;;10.03;;
15818;SDS011;8010;53.986;12.106;2024-03-07T08:30:32;16.07;;;9.60;;
15818;SDS011;8010;53.986;12.106;2024-03-07T08:32:59;16.90;;;9.43;;
15818;SDS011;8010;53.986;12.106;2024-03-07T08:35:27;15.70;;;9.37;;
15818;SDS011;8010;53.986;12.106;2024-03-07T08:37:54;16.03;;;9.13;;
15818;SDS011;8010;53.986;12.106;2024-03-07T08:42:50;14.30;;;8.67;;
15818;SDS011;8010;53.986;12.106;2024-03-07T08:45:17;15.37;;;8.53;;
15818;SDS011;8010;53.986;12.106;2024-03-07T08:47:47;14.30;;;9.10;;
15818;SDS011;8010;53.986;12.106;2024-03-07T08:50:14;15.77;;;8.80;;
15818;SDS011;8010;53.986;12.106;2024-03-07T08:52:41;13.53;;;8.77;;
15818;SDS011;8010;53.986;12.106;2024-03-07T08:55:08;14.40;;;8.20;;
15818;SDS011;8010;53.986;12.106;2024-03-07T08:57:37;12.83;;;7.70;;
15818;SDS011;8010;53.986;12.106;2024-03-07T09:00:04;15.47;;;8.70;;
15818;SDS011;8010;53.986;12.106;2024-03-07T09:02:34;13.10;;;7.90;;
15818;SDS011;8010;53.986;12.106;2024-03-07T09:05:04;14.87;;;8.13;;
15818;SDS011;8010;53.986;12.106;2024-03-07T09:07:30;16.70;;;8.67;;
15818;SDS011;8010;53.986;12.106;2024-03-07T09:09:57;15.33;;;9.50;;
15818;SDS011;8010;53.986;12.106;2024-03-07T09:12:22;12.87;;;8.23;;
15818;SDS011;8010;53.986;12.106;2024-03-07T09:14:50;17.23;;;8.43;;
15818;SDS011;8010;53.986;12.106;2024-03-07T09:17:17;12.27;;;7.93;;
15818;SDS011;8010;53.986;12.106;2024-03-07T09:19:42;13.83;;;8.83;;
15818;SDS011;8010;53.986;12.106;2024-03-07T09:22:08;12.07;;;8.33;;
15818;SDS011;8010;53.986;12.106;2024-03-07T09:24:34;13.63;;;8.57;;
15818;SDS011;8010;53.986;12.106;2024-03-07T09:26:59;13.60;;;8.53;;
15818;SDS011;8010;53.986;12.106;2024-03-07T09:29:25;13.57;;;7.73;;
15818;SDS011;8010;53.986;12.106;2024-03-07T09:31:52;13.17;;;8.60;;
15818;SDS011;8010;53.986;12.106;2024-03-07T09:34:18;15.40;;;8.30;;
15818;SDS011;8010;53.986;12.106;2024-03-07T09:36:47;16.70;;;8.63;;
15818;SDS011;8010;53.986;12.106;2024-03-07T09:39:14;12.63;;;8.03;;
15818;SDS011;8010;53.986;12.106;2024-03-07T09:41:40;13.37;;;8.00;;
15818;SDS011;8010;53.986;12.106;2024-03-07T09:44:06;14.07;;;9.27;;
15818;SDS011;8010;53.986;12.106;2024-03-07T09:46:34;12.30;;;7.93;;
15818;SDS011;8010;53.986;12.106;2024-03-07T09:49:01;13.57;;;8.33;;
15818;SDS011;8010;53.986;12.106;2024-03-07T09:51:26;13.40;;;8.50;;
15818;SDS011;8010;53.986;12.106;2024-03-07T09:53:54;15.10;;;8.17;;
15818;SDS011;8010;53.986;12.106;2024-03-07T09:56:23;15.30;;;8.53;;
15818;SDS011;8010;53.986;12.106;2024-03-07T09:58:52;17.40;;;8.30;;
15818;SDS011;8010;53.986;12.106;2024-03-07T10:01:19;13.07;;;8.63;;
15818;SDS011;8010;53.986;12.106;2024-03-07T10:03:47;15.70;;;8.33;;
15818;SDS011;8010;53.986;12.106;2024-03-07T10:06:15;12.40;;;8.37;;
15818;SDS011;8010;53.986;12.106;2024-03-07T10:08:41;15.13;;;9.57;;
15818;SDS011;8010;53.986;12.106;2024-03-07T10:11:08;12.60;;;8.73;;
15818;SDS011;8010;53.986;12.106;2024-03-07T10:13:34;14.10;;;8.77;;
15818;SDS011;8010;53.986;12.106;2024-03-07T10:16:02;15.63;;;9.10;;
15818;SDS011;8010;53.986;12.106;2024-03-07T10:18:29;13.47;;;8.83;;
15818;SDS011;8010;53.986;12.106;2024-03-07T10:20:56;13.57;;;8.37;;
15818;SDS011;8010;53.986;12.106;2024-03-07T10:23:22;15.23;;;9.17;;
15818;SDS011;8010;53.986;12.106;2024-03-07T10:25:48;14.73;;;9.17;;
15818;SDS011;8010;53.986;12.106;2024-03-07T10:28:19;13.23;;;8.63;;
15818;SDS011;8010;53.986;12.106;2024-03-07T10:30:46;12.27;;;8.77;;
15818;SDS011;8010;53.986;12.106;2024-03-07T10:33:15;14.20;;;8.87;;
15818;SDS011;8010;53.986;12.106;2024-03-07T10:35:41;17.57;;;9.37;;
15818;SDS011;8010;53.986;12.106;2024-03-07T10:38:07;14.90;;;8.40;;
15818;SDS011;8010;53.986;12.106;2024-03-07T10:40:36;14.53;;;8.43;;
15818;SDS011;8010;53.986;12.106;2024-03-07T10:43:05;12.47;;;7.90;;
15818;SDS011;8010;53.986;12.106;2024-03-07T10:45:35;15.33;;;8.70;;
15818;SDS011;8010;53.986;12.106;2024-03-07T10:48:17;12.93;;;7.90;;
15818;SDS011;8010;53.986;12.106;2024-03-07T10:53:39;12.73;;;8.43;;
15818;SDS011;8010;53.986;12.106;2024-03-07T10:59:17;11.63;;;7.63;;
15818;SDS011;8010;53.986;12.106;2024-03-07T11:04:44;15.70;;;7.67;;
15818;SDS011;8010;53.986;12.106;2024-03-07T11:07:12;13.43;;;8.73;;
15818;SDS011;8010;53.986;12.106;2024-03-07T11:09:38;11.03;;;7.63;;
15818;SDS011;8010;53.986;12.106;2024-03-07T11:12:07;12.83;;;7.63;;
15818;SDS011;8010;53.986;12.106;2024-03-07T11:14:35;12.33;;;7.57;;
15818;SDS011;8010;53.986;12.106;2024-03-07T11:17:02;10.23;;;7.10;;
15818;SDS011;8010;53.986;12.106;2024-03-07T11:19:30;11.83;;;7.60;;
15818;SDS011;8010;53.986;12.106;2024-03-07T11:21:59;13.37;;;7.87;;
15818;SDS011;8010;53.986;12.106;2024-03-07T11:24:27;10.57;;;7.30;;
15818;SDS011;8010;53.986;12.106;2024-03-07T11:26:54;11.83;;;7.10;;
15818;SDS011;8010;53.986;12.106;2024-03-07T11:32:11;11.50;;;6.87;;
15818;SDS011;8010;53.986;12.106;2024-03-07T11:34:41;12.80;;;7.43;;
15818;SDS011;8010;53.986;12.106;2024-03-07T11:37:11;8.80;;;6.37;;
15818;SDS011;8010;53.986;12.106;2024-03-07T11:39:48;13.70;;;7.93;;
15818;SDS011;8010;53.986;12.106;2024-03-07T11:42:23;11.67;;;7.37;;
15818;SDS011;8010;53.986;12.106;2024-03-07T11:44:53;12.03;;;6.20;;
15818;SDS011;8010;53.986;12.106;2024-03-07T11:47:21;9.57;;;6.90;;
15818;SDS011;8010;53.986;12.106;2024-03-07T11:50:00;14.63;;;6.90;;
15818;SDS011;8010;53.986;12.106;2024-03-07T11:52:33;8.57;;;5.80;;
15818;SDS011;8010;53.986;12.106;2024-03-07T11:54:59;10.03;;;6.50;;
15818;SDS011;8010;53.986;12.106;2024-03-07T11:57:28;16.23;;;6.77;;
15818;SDS011;8010;53.986;12.106;2024-03-07T12:00:00;9.63;;;6.83;;
15818;SDS011;8010;53.986;12.106;2024-03-07T12:02:33;10.03;;;6.97;;
15818;SDS011;8010;53.986;12.106;2024-03-07T12:04:59;9.23;;;6.50;;
15818;SDS011;8010;53.986;12.106;2024-03-07T12:07:25;10.17;;;6.60;;
15818;SDS011;8010;53.986;12.106;2024-03-07T12:09:51;10.43;;;6.87;;
15818;SDS011;8010;53.986;12.106;2024-03-07T12:12:20;8.97;;;7.13;;
15818;SDS011;8010;53.986;12.106;2024-03-07T12:14:47;10.27;;;7.07;;
15818;SDS011;8010;53.986;12.106;2024-03-07T12:17:13;9.53;;;6.23;;
15818;SDS011;8010;53.986;12.106;2024-03-07T12:19:42;9.57;;;6.67;;
15818;SDS011;8010;53.986;12.106;2024-03-07T12:22:10;10.10;;;6.23;;
15818;SDS011;8010;53.986;12.106;2024-03-07T12:24:40;11.10;;;7.00;;
15818;SDS011;8010;53.986;12.106;2024-03-07T12:27:09;12.97;;;6.60;;
15818;SDS011;8010;53.986;12.106;2024-03-07T12:29:37;10.03;;;6.27;;
15818;SDS011;8010;53.986;12.106;2024-03-07T12:32:07;11.00;;;6.83;;
15818;SDS011;8010;53.986;12.106;2024-03-07T12:34:35;8.67;;;5.93;;
15818;SDS011;8010;53.986;12.106;2024-03-07T12:37:05;11.77;;;6.50;;
15818;SDS011;8010;53.986;12.106;2024-03-07T12:39:34;9.10;;;5.23;;
15818;SDS011;8010;53.986;12.106;2024-03-07T12:42:03;8.77;;;6.10;;
15818;SDS011;8010;53.986;12.106;2024-03-07T12:44:39;11.47;;;6.13;;
15818;SDS011;8010;53.986;12.106;2024-03-07T12:47:08;11.30;;;6.43;;
15818;SDS011;8010;53.986;12.106;2024-03-07T12:49:35;10.50;;;6.50;;
15818;SDS011;8010;53.986;12.106;2024-03-07T12:52:00;8.33;;;5.93;;
15818;SDS011;8010;53.986;12.106;2024-03-07T12:54:26;10.80;;;6.97;;
15818;SDS011;8010;53.986;12.106;2024-03-07T12:56:52;9.70;;;6.80;;
15818;SDS011;8010;53.986;12.106;2024-03-07T12:59:17;10.10;;;6.23;;
15818;SDS011;8010;53.986;12.106;2024-03-07T13:01:44;10.90;;;6.73;;
15818;SDS011;8010;53.986;12.106;2024-03-07T13:04:12;8.83;;;6.87;;
15818;SDS011;8010;53.986;12.106;2024-03-07T13:06:39;9.33;;;6.17;;
15818;SDS011;8010;53.986;12.106;2024-03-07T13:09:08;10.40;;;6.90;;
15818;SDS011;8010;53.986;12.106;2024-03-07T13:11:36;12.63;;;6.40;;
15818;SDS011;8010;53.986;12.106;2024-03-07T13:14:11;10.13;;;6.37;;
15818;SDS011;8010;53.986;12.106;2024-03-07T13:16:37;8.00;;;6.27;;
15818;SDS011;8010;53.986;12.106;2024-03-07T13:19:02;10.40;;;5.87;;
15818;SDS011;8010;53.986;12.106;2024-03-07T13:21:33;9.40;;;7.07;;
15818;SDS011;8010;53.986;12.106;2024-03-07T13:24:00;9.23;;;6.73;;
15818;SDS011;8010;53.986;12.106;2024-03-07T13:26:26;8.53;;;6.30;;
15818;SDS011;8010;53.986;12.106;2024-03-07T13:28:55;10.87;;;6.60;;
15818;SDS011;8010;53.986;12.106;2024-03-07T13:31:21;9.73;;;6.37;;
15818;SDS011;8010;53.986;12.106;2024-03-07T13:33:48;10.93;;;6.87;;
15818;SDS011;8010;53.986;12.106;2024-03-07T13:36:16;9.93;;;6.20;;
15818;SDS011;8010;53.986;12.106;2024-03-07T13:38:48;7.47;;;5.80;;
15818;SDS011;8010;53.986;12.106;2024-03-07T13:41:16;9.67;;;6.43;;
15818;SDS011;8010;53.986;12.106;2024-03-07T13:43:43;9.70;;;6.83;;
15818;SDS011;8010;53.986;12.106;2024-03-07T13:46:09;10.23;;;6.27;;
15818;SDS011;8010;53.986;12.106;2024-03-07T13:48:37;8.77;;;6.53;;
15818;SDS011;8010;53.986;12.106;2024-03-07T13:51:02;9.70;;;6.60;;
15818;SDS011;8010;53.986;12.106;2024-03-07T13:53:33;9.80;;;6.53;;
15818;SDS011;8010;53.986;12.106;2024-03-07T14:12:20;10.47;;;6.10;;
15818;SDS011;8010;53.986;12.106;2024-03-07T14:15:20;9.07;;;6.37;;
15818;SDS011;8010;53.986;12.106;2024-03-07T14:18:18;11.60;;;6.27;;
15818;SDS011;8010;53.986;12.106;2024-03-07T14:21:44;9.07;;;6.20;;
15818;SDS011;8010;53.986;12.106;2024-03-07T14:27:25;10.07;;;6.73;;
15818;SDS011;8010;53.986;12.106;2024-03-07T14:33:00;9.70;;;6.80;;
15818;SDS011;8010;53.986;12.106;2024-03-07T14:35:39;12.23;;;7.63;;
15818;SDS011;8010;53.986;12.106;2024-03-07T14:38:49;10.47;;;7.13;;
15818;SDS011;8010;53.986;12.106;2024-03-07T14:41:18;11.43;;;7.97;;
15818;SDS011;8010;53.986;12.106;2024-03-07T14:43:48;11.20;;;8.00;;
15818;SDS011;8010;53.986;12.106;2024-03-07T14:46:14;13.00;;;7.93;;
15818;SDS011;8010;53.986;12.106;2024-03-07T14:48:40;11.07;;;8.03;;
15818;SDS011;8010;53.986;12.106;2024-03-07T14:51:07;10.97;;;7.77;;
15818;SDS011;8010;53.986;12.106;2024-03-07T14:53:34;12.50;;;7.87;;
15818;SDS011;8010;53.986;12.106;2024-03-07T14:55:59;13.77;;;8.43;;
15818;SDS011;8010;53.986;12.106;2024-03-07T14:58:25;12.20;;;8.17;;
15818;SDS011;8010;53.986;12.106;2024-03-07T15:00:51;11.47;;;8.87;;
15818;SDS011;8010;53.986;12.106;2024-03-07T15:03:19;11.70;;;7.73;;
15818;SDS011;8010;53.986;12.106;2024-03-07T15:05:45;12.60;;;7.83;;
15818;SDS011;8010;53.986;12.106;2024-03-07T15:08:11;11.30;;;8.27;;
15818;SDS011;8010;53.986;12.106;2024-03-07T15:10:38;12.77;;;8.90;;
15818;SDS011;8010;53.986;12.106;2024-03-07T15:13:11;14.07;;;8.30;;